Time;durP1;ratioP1;P1;durP2;ratioP2;P2;SDS_P1;SDS_P2;PMS_P1;PMS_P2;Temp;Humidity;BMP_temperature;BMP_pressure;BME280_temperature;BME280_humidity;BME280_pressure;Samples;Min_cycle;Max_cycle;Signal;HPM_P1;HPM_P2
2023/04/22 05:21:28;;;;;;;2.03;1.83;;;;;;;;;;5136225;27;20274;-79
2023/04/22 05:27:55;;;;;;;2.37;2.17;;;;;;;;;;5140712;27;20275;-79
2023/04/22 05:34:07;;;;;;;1.97;1.77;;;;;;;;;;5135897;27;20288;-80
2023/04/22 05:42:30;;;;;;;2.33;1.70;;;8.10;99.90;;;;;;5135459;27;20282;-78
2023/04/22 05:50:41;;;;;;;2.23;2.03;;;8.10;99.90;;;;;;5114895;27;20592;-78
2023/04/22 05:56:55;;;;;;;2.40;2.20;;;8.40;99.90;;;;;;5132766;27;20282;-78
2023/04/22 06:11:47;;;;;;;2.50;2.30;;;;;;;;;;5132246;27;20274;-77
2023/04/22 06:16:46;;;;;;;4.23;2.20;;;;;;;;;;5134363;27;20277;-78
2023/04/22 06:21:38;;;;;;;2.50;1.90;;;;;;;;;;5132268;27;20748;-78
2023/04/22 06:26:33;;;;;;;1.83;1.70;;;9.10;99.90;;;;;;5133003;27;20291;-77
2023/04/22 06:31:32;;;;;;;1.80;1.70;;;;;;;;;;5132223;27;20620;-76
2023/04/22 06:36:22;;;;;;;1.80;1.70;;;9.60;99.90;;;;;;5132687;27;20287;-77
2023/04/22 06:41:16;;;;;;;5.63;1.70;;;10.00;99.90;;;;;;5132096;27;20267;-77
2023/04/22 06:46:05;;;;;;;2.37;1.50;;;10.20;99.90;;;;;;5132579;27;20291;-75
2023/04/22 06:50:09;;;;;;;1.63;1.50;;;10.40;99.90;;;;;;5135395;27;20632;-78
2023/04/22 06:53:50;;;;;;;2.90;1.23;;;10.50;99.90;;;;;;5132990;27;20737;-76
2023/04/22 06:57:50;;;;;;;2.63;1.60;;;11.20;99.90;;;;;;5132795;27;20271;-75
2023/04/22 07:01:47;;;;;;;1.87;1.30;;;11.50;99.90;;;;;;5111634;27;20604;-75
2023/04/22 07:05:48;;;;;;;1.70;1.60;;;;;;;;;;5132556;27;20286;-75
2023/04/22 07:09:41;;;;;;;2.97;1.23;;;12.00;99.90;;;;;;5132453;27;20753;-76
2023/04/22 07:13:39;;;;;;;1.50;1.40;;;11.90;99.90;;;;;;5132841;27;20278;-76
2023/04/22 07:17:39;;;;;;;1.30;1.17;;;12.00;99.90;;;;;;5132818;27;20274;-76
2023/04/22 07:21:38;;;;;;;1.70;1.43;;;12.40;99.90;;;;;;5132200;27;20737;-76
2023/04/22 07:25:37;;;;;;;4.03;1.50;;;12.70;99.90;;;;;;5132831;27;20283;-77
2023/04/22 07:29:37;;;;;;;3.07;1.70;;;13.10;99.90;;;;;;5132291;27;20275;-77
2023/04/22 07:33:36;;;;;;;4.90;1.40;;;13.70;99.90;;;;;;5132731;27;20289;-76
2023/04/22 07:37:36;;;;;;;1.23;1.10;;;15.10;99.90;;;;;;5132826;27;20291;-76
2023/04/22 07:41:36;;;;;;;1.10;1.00;;;16.20;99.90;;;;;;5132577;27;20274;-75
2023/04/22 07:45:38;;;;;;;1.70;1.10;;;17.20;99.90;;;;;;5132311;27;20285;-76
2023/04/22 07:49:36;;;;;;;1.13;0.90;;;17.60;96.80;;;;;;5132589;27;20279;-76
2023/04/22 07:53:34;;;;;;;1.80;1.30;;;19.40;95.40;;;;;;5131834;27;20284;-76
2023/04/22 07:57:37;;;;;;;1.10;1.00;;;20.20;94.30;;;;;;5132701;27;20277;-75
2023/04/22 08:02:33;;;;;;;1.07;0.90;;;22.40;90.30;;;;;;5132746;27;20614;-76
2023/04/22 08:04:59;;;;;;;1.20;1.10;;;22.00;81.20;;;;;;5131925;28;20205;-77
2023/04/22 08:07:25;;;;;;;1.30;1.10;;;22.60;77.40;;;;;;5131912;27;20250;-76
2023/04/22 08:09:51;;;;;;;1.13;1.03;;;22.70;77.00;;;;;;5131692;27;20162;-76
2023/04/22 08:12:17;;;;;;;1.23;1.13;;;22.50;71.60;;;;;;5131765;27;20520;-76
2023/04/22 08:14:42;;;;;;;2.30;1.00;;;22.50;69.40;;;;;;5131590;27;20688;-76
2023/04/22 08:17:08;;;;;;;2.37;1.40;;;23.00;73.00;;;;;;5131997;27;20188;-75
2023/04/22 08:19:34;;;;;;;0.90;0.90;;;23.40;65.00;;;;;;5131803;27;20250;-76
2023/04/22 08:22:00;;;;;;;1.20;1.10;;;23.30;66.80;;;;;;5131448;27;20204;-76
2023/04/22 08:24:26;;;;;;;1.00;1.00;;;22.80;65.00;;;;;;5130331;28;20262;-76
2023/04/22 08:26:51;;;;;;;4.03;1.27;;;22.20;65.40;;;;;;5131822;27;20626;-76
2023/04/22 08:29:17;;;;;;;2.80;1.10;;;22.20;70.50;;;;;;5130227;28;20258;-76
2023/04/22 08:31:43;;;;;;;1.30;1.10;;;22.80;74.80;;;;;;5131625;27;20219;-76
2023/04/22 08:34:09;;;;;;;0.80;0.80;;;23.30;71.10;;;;;;5131594;27;20299;-76
2023/04/22 08:36:34;;;;;;;1.17;1.03;;;23.40;68.20;;;;;;5131601;27;20192;-75
2023/04/22 08:39:00;;;;;;;1.73;0.80;;;23.90;69.50;;;;;;5131198;27;20203;-76
2023/04/22 08:41:27;;;;;;;0.93;0.90;;;24.20;65.80;;;;;;5130903;27;20195;-77
2023/04/22 08:43:53;;;;;;;1.73;0.80;;;23.90;68.70;;;;;;5131196;27;20652;-77
2023/04/22 08:46:19;;;;;;;1.70;0.97;;;23.90;70.10;;;;;;5131071;27;20196;-78
2023/04/22 08:48:46;;;;;;;0.80;0.80;;;23.40;64.90;;;;;;5130954;28;20637;-77
2023/04/22 08:51:15;;;;;;;1.20;0.90;;;23.10;61.90;;;;;;5130890;27;20218;-77
2023/04/22 08:53:42;;;;;;;1.67;1.00;;;23.10;60.10;;;;;;5130929;27;20657;-77
2023/04/22 08:56:08;;;;;;;1.63;0.70;;;23.40;61.20;;;;;;5130866;27;20197;-77
2023/04/22 08:58:33;;;;;;;2.30;0.80;;;23.50;53.40;;;;;;5129642;28;20179;-77
2023/04/22 09:01:01;;;;;;;0.73;0.73;;;22.80;54.50;;;;;;5129317;28;20222;-77
2023/04/22 09:03:26;;;;;;;0.90;0.80;;;22.60;56.60;;;;;;5131159;27;20609;-77
2023/04/22 09:05:53;;;;;;;3.90;0.70;;;22.40;56.00;;;;;;5130758;27;20277;-77
2023/04/22 09:08:20;;;;;;;0.70;0.63;;;22.00;56.30;;;;;;5129612;28;20168;-77
2023/04/22 09:10:45;;;;;;;0.87;0.77;;;22.00;58.30;;;;;;5130553;27;20707;-77
2023/04/22 09:13:13;;;;;;;1.00;0.70;;;22.00;58.40;;;;;;5121114;27;20179;-76
2023/04/22 09:15:39;;;;;;;1.00;0.90;;;22.10;58.80;;;;;;5115570;28;20202;-76
2023/04/22 09:18:04;;;;;;;0.90;0.80;;;22.00;57.70;;;;;;5117050;28;20175;-76
2023/04/22 09:20:31;;;;;;;1.47;0.90;;;22.30;59.50;;;;;;5116600;27;20191;-76
2023/04/22 09:23:02;;;;;;;1.43;0.80;;;22.60;62.80;;;;;;5115331;28;20181;-75
2023/04/22 09:25:28;;;;;;;1.37;0.90;;;23.00;61.10;;;;;;5116847;28;20195;-75
2023/04/22 09:27:56;;;;;;;0.90;0.80;;;23.10;64.20;;;;;;5116798;28;20250;-75
2023/04/22 09:30:31;;;;;;;0.60;0.60;;;23.20;60.60;;;;;;5116608;28;20562;-75
2023/04/22 09:33:00;;;;;;;0.90;0.70;;;23.00;60.40;;;;;;5116646;28;20167;-75
2023/04/22 09:35:27;;;;;;;0.83;0.80;;;22.90;64.50;;;;;;5115593;28;20204;-75
2023/04/22 09:37:53;;;;;;;2.17;1.00;;;22.70;58.90;;;;;;5116451;28;20573;-75
2023/04/22 09:40:19;;;;;;;0.83;0.83;;;22.50;66.90;;;;;;5116257;28;20217;-75
2023/04/22 09:42:57;;;;;;;0.93;0.83;;;22.40;66.60;;;;;;5116547;28;20176;-75
2023/04/22 09:45:34;;;;;;;1.17;0.80;;;22.60;68.50;;;;;;5116228;28;20575;-75
2023/04/22 09:48:07;;;;;;;2.23;0.90;;;22.90;66.40;;;;;;5114908;28;20179;-76
2023/04/22 09:50:32;;;;;;;2.73;0.90;;;23.10;64.30;;;;;;5116131;28;20180;-75
2023/04/22 09:53:05;;;;;;;2.63;0.90;;;23.10;64.70;;;;;;5114935;28;20212;-76
2023/04/22 09:55:33;;;;;;;1.00;0.70;;;23.00;65.90;;;;;;5116384;28;20206;-75
2023/04/22 09:58:06;;;;;;;2.67;1.00;;;23.10;59.80;;;;;;5114853;28;20227;-75
2023/04/22 10:00:36;;;;;;;0.70;0.60;;;22.90;61.00;;;;;;5115810;28;20675;-76
2023/04/22 10:03:03;;;;;;;0.93;0.80;;;23.00;67.00;;;;;;5115967;28;20180;-76
2023/04/22 10:05:29;;;;;;;2.83;0.80;;;23.10;66.10;;;;;;5115539;28;20647;-79
2023/04/22 10:07:55;;;;;;;3.63;0.80;;;23.20;62.70;;;;;;5116909;28;20182;-77
2023/04/22 10:10:22;;;;;;;2.13;1.00;;;23.30;67.90;;;;;;5115695;28;20265;-76
2023/04/22 10:12:48;;;;;;;2.30;1.00;;;23.30;66.50;;;;;;5115970;28;20183;-74
2023/04/22 10:15:14;;;;;;;8.43;1.27;;;23.10;67.70;;;;;;5115911;28;20305;-75
2023/04/22 10:17:41;;;;;;;5.57;1.37;;;23.20;68.60;;;;;;5115852;28;20203;-74
2023/04/22 10:20:14;;;;;;;4.30;1.00;;;23.20;67.70;;;;;;5115423;28;20647;-74
2023/04/22 10:22:41;;;;;;;19.33;2.87;;;23.30;67.60;;;;;;5115754;28;20183;-75
2023/04/22 10:25:11;;;;;;;4.23;1.10;;;23.50;68.10;;;;;;5114329;28;20205;-73
2023/04/22 10:27:38;;;;;;;1.00;0.87;;;23.60;66.00;;;;;;5115847;28;20213;-74
2023/04/22 10:30:05;;;;;;;1.23;0.80;;;23.60;66.30;;;;;;5115586;28;20526;-74
2023/04/22 10:32:32;;;;;;;0.80;0.70;;;23.50;68.60;;;;;;5115277;28;20254;-75
2023/04/22 10:35:09;;;;;;;6.60;1.57;;;23.80;66.40;;;;;;5115121;28;20220;-74
2023/04/22 10:37:35;;;;;;;1.90;0.80;;;24.00;68.30;;;;;;5115137;28;20509;-75
2023/04/22 10:40:09;;;;;;;2.53;0.90;;;24.20;67.10;;;;;;5114996;28;20177;-75
2023/04/22 10:42:38;;;;;;;1.33;1.00;;;24.40;66.10;;;;;;5115268;28;20200;-75
2023/04/22 10:45:04;;;;;;;0.97;0.90;;;24.30;65.40;;;;;;5115117;28;20217;-75
2023/04/22 10:47:31;;;;;;;13.17;6.07;;;24.20;65.90;;;;;;5113590;28;20176;-74
2023/04/22 10:50:20;;;;;;;4.87;3.60;;;24.00;66.60;;;;;;5114947;28;20170;-74
2023/04/22 10:52:55;;;;;;;2.20;1.67;;;24.30;64.50;;;;;;5115283;28;20180;-74
2023/04/22 10:55:21;;;;;;;2.10;1.40;;;24.60;71.20;;;;;;5115070;28;20191;-75
2023/04/22 10:57:48;;;;;;;1.93;1.20;;;24.40;65.00;;;;;;5115103;28;20529;-74
2023/04/22 11:00:30;;;;;;;2.87;1.70;;;24.20;64.20;;;;;;5113112;28;20256;-75
2023/04/22 11:03:07;;;;;;;1.33;1.00;;;24.30;65.00;;;;;;5115080;28;20630;-74
2023/04/22 11:05:34;;;;;;;7.50;1.67;;;23.60;64.40;;;;;;5115281;28;20187;-74
2023/04/22 11:08:22;;;;;;;5.00;1.17;;;23.60;73.40;;;;;;5114678;28;20662;-76
2023/04/22 11:10:50;;;;;;;4.77;1.43;;;23.70;67.60;;;;;;5114750;28;20148;-76
2023/04/22 11:13:20;;;;;;;2.93;1.43;;;23.80;71.00;;;;;;5114562;28;20173;-76
2023/04/22 11:15:52;;;;;;;4.40;2.10;;;23.80;64.70;;;;;;5115087;28;20238;-75
2023/04/22 11:18:24;;;;;;;6.57;1.20;;;24.30;72.70;;;;;;5113081;28;20190;-76
2023/04/22 11:20:52;;;;;;;2.43;1.17;;;24.70;65.10;;;;;;5114293;28;20193;-75
2023/04/22 11:23:27;;;;;;;3.47;1.13;;;24.90;69.20;;;;;;5113400;28;20176;-77
2023/04/22 11:26:02;;;;;;;1.70;1.10;;;25.20;66.50;;;;;;5114160;28;20184;-75
2023/04/22 11:28:28;;;;;;;1.83;0.70;;;25.60;63.50;;;;;;5113027;28;20701;-76
2023/04/22 11:31:09;;;;;;;1.17;0.77;;;25.20;63.80;;;;;;5114232;28;20205;-76
2023/04/22 11:33:37;;;;;;;1.00;0.90;;;25.00;61.10;;;;;;5114155;28;20155;-76
2023/04/22 11:36:03;;;;;;;4.20;1.00;;;24.80;65.50;;;;;;5113778;28;20201;-75
2023/04/22 11:38:28;;;;;;;2.67;0.97;;;24.90;65.20;;;;;;5114403;28;20684;-76
2023/04/22 11:40:56;;;;;;;10.17;1.70;;;25.20;65.00;;;;;;5112430;28;20669;-76
2023/04/22 11:43:22;;;;;;;1.50;1.10;;;25.50;61.00;;;;;;5112653;28;20226;-76
2023/04/22 11:45:47;;;;;;;1.30;1.00;;;25.80;60.80;;;;;;5113907;28;20193;-76
2023/04/22 11:48:15;;;;;;;1.00;0.80;;;26.00;59.30;;;;;;5114241;28;20478;-76
2023/04/22 11:50:44;;;;;;;0.70;0.70;;;26.60;66.20;;;;;;5113709;28;20660;-76
2023/04/22 11:53:22;;;;;;;5.27;1.20;;;27.10;59.60;;;;;;5114309;28;20177;-75
2023/04/22 11:55:50;;;;;;;0.93;0.80;;;27.50;60.00;;;;;;5114403;28;20192;-75
2023/04/22 11:58:25;;;;;;;2.67;1.00;;;27.70;58.90;;;;;;5113859;28;20174;-75
2023/04/22 12:00:53;;;;;;;1.03;0.80;;;27.30;54.50;;;;;;5113600;28;20222;-76
2023/04/22 12:03:21;;;;;;;3.03;0.80;;;27.30;55.40;;;;;;5113979;28;20168;-76
2023/04/22 12:05:50;;;;;;;1.00;0.90;;;27.00;54.90;;;;;;5113795;28;20191;-75
2023/04/22 12:08:18;;;;;;;1.23;0.80;;;27.20;53.90;;;;;;5112584;28;20171;-75
2023/04/22 12:10:48;;;;;;;5.20;1.40;;;27.40;55.90;;;;;;5113690;28;20196;-75
2023/04/22 12:13:22;;;;;;;4.87;1.40;;;27.30;53.90;;;;;;5113839;28;20164;-75
2023/04/22 12:15:52;;;;;;;2.00;0.93;;;27.40;52.80;;;;;;5114238;28;20636;-75
2023/04/22 12:18:28;;;;;;;1.20;1.00;;;27.20;53.30;;;;;;5113353;28;20176;-78
2023/04/22 12:20:58;;;;;;;2.00;0.90;;;27.60;55.30;;;;;;5113335;28;20184;-76
2023/04/22 12:23:23;;;;;;;2.23;1.00;;;26.90;53.50;;;;;;5113728;28;20164;-76
2023/04/22 12:25:49;;;;;;;2.93;0.87;;;26.70;56.30;;;;;;5113421;28;20191;-76
2023/04/22 12:28:18;;;;;;;2.50;1.00;;;27.50;52.60;;;;;;5113584;28;20177;-76
2023/04/22 12:30:44;;;;;;;1.40;1.00;;;28.10;56.20;;;;;;5113527;28;20168;-76
2023/04/22 12:33:10;;;;;;;2.77;0.90;;;28.10;54.00;;;;;;5113544;28;20174;-76
2023/04/22 12:35:36;;;;;;;3.37;1.17;;;28.30;53.10;;;;;;5113371;28;20243;-76
2023/04/22 12:38:01;;;;;;;1.20;1.00;;;28.60;52.00;;;;;;5113950;28;20172;-76
2023/04/22 12:40:27;;;;;;;2.20;1.00;;;28.70;50.40;;;;;;5113594;28;20219;-76
2023/04/22 12:42:53;;;;;;;1.03;0.87;;;28.60;48.80;;;;;;5113830;28;20165;-76
2023/04/22 12:45:21;;;;;;;3.43;0.83;;;28.50;51.40;;;;;;5113312;28;20189;-76
2023/04/22 12:47:48;;;;;;;0.80;0.73;;;28.50;54.40;;;;;;5114572;28;20199;-76
2023/04/22 12:50:14;;;;;;;2.77;1.10;;;28.80;53.30;;;;;;5117092;28;20286;-76
2023/04/22 12:52:40;;;;;;;2.90;1.17;;;28.70;49.20;;;;;;5117329;28;20172;-76
2023/04/22 12:55:06;;;;;;;1.27;1.07;;;28.70;47.90;;;;;;5117056;28;20191;-76
2023/04/22 12:57:32;;;;;;;2.93;1.13;;;28.70;48.30;;;;;;5117475;28;20176;-76
2023/04/22 12:59:58;;;;;;;2.03;0.90;;;28.30;49.80;;;;;;5116975;28;20170;-76
2023/04/22 13:02:24;;;;;;;1.27;1.00;;;28.10;49.60;;;;;;5116929;28;20195;-76
2023/04/22 13:04:50;;;;;;;4.33;1.40;;;28.50;49.90;;;;;;5117266;28;20521;-77
2023/04/22 13:07:16;;;;;;;2.27;0.97;;;28.70;47.80;;;;;;5115596;28;20178;-76
2023/04/22 13:09:44;;;;;;;2.80;0.93;;;28.80;47.50;;;;;;5116664;28;20160;-77
2023/04/22 13:12:10;;;;;;;4.07;1.60;;;28.70;49.40;;;;;;5117224;28;20164;-76
2023/04/22 13:14:36;;;;;;;1.67;1.10;;;28.60;47.30;;;;;;5116683;28;20195;-76
2023/04/22 13:17:02;;;;;;;3.93;1.00;;;27.70;50.00;;;;;;5117117;28;20711;-76
2023/04/22 13:19:29;;;;;;;1.50;0.90;;;27.80;50.10;;;;;;5115573;28;20588;-77
2023/04/22 13:21:55;;;;;;;1.20;0.93;;;27.60;49.10;;;;;;5116492;28;20219;-77
2023/04/22 13:24:21;;;;;;;1.13;1.03;;;27.50;51.80;;;;;;5115533;28;20232;-77
2023/04/22 13:26:46;;;;;;;2.67;1.00;;;26.80;51.00;;;;;;5116527;28;20169;-76
2023/04/22 13:29:13;;;;;;;1.43;0.97;;;26.70;54.80;;;;;;5116488;28;20236;-76
2023/04/22 13:31:43;;;;;;;1.43;1.10;;;26.50;53.10;;;;;;5116327;28;20174;-76
2023/04/22 13:34:10;;;;;;;3.90;1.50;;;26.30;52.40;;;;;;5117087;28;20189;-77
2023/04/22 13:36:36;;;;;;;4.93;1.10;;;26.60;53.70;;;;;;5116288;28;20670;-76
2023/04/22 13:39:01;;;;;;;2.10;1.07;;;26.40;53.30;;;;;;5116310;28;20173;-77
2023/04/22 13:41:27;;;;;;;4.07;1.33;;;26.40;56.20;;;;;;5115980;28;20198;-77
2023/04/22 13:43:54;;;;;;;2.40;0.80;;;26.40;54.30;;;;;;5116762;28;20169;-77
2023/04/22 13:46:20;;;;;;;0.87;0.80;;;26.00;50.30;;;;;;5116012;28;20186;-77
2023/04/22 13:48:46;;;;;;;2.83;1.30;;;26.00;52.40;;;;;;5116180;28;20528;-77
2023/04/22 13:51:12;;;;;;;2.60;0.93;;;25.80;52.80;;;;;;5115894;28;20225;-77
2023/04/22 13:53:37;;;;;;;2.70;1.07;;;25.40;58.50;;;;;;5115973;28;20595;-76
2023/04/22 13:56:03;;;;;;;2.97;1.07;;;25.00;53.30;;;;;;5114547;28;20202;-76
2023/04/22 13:58:29;;;;;;;1.60;1.10;;;24.70;55.70;;;;;;5115733;28;20203;-76
2023/04/22 14:00:54;;;;;;;2.03;1.10;;;24.60;55.70;;;;;;5115442;28;20294;-76
2023/04/22 14:03:20;;;;;;;3.77;1.10;;;24.40;52.80;;;;;;5114493;28;20175;-77
2023/04/22 14:05:46;;;;;;;1.87;1.17;;;24.20;54.60;;;;;;5115764;28;20179;-76
2023/04/22 14:08:12;;;;;;;3.67;1.00;;;24.30;54.70;;;;;;5115974;28;20167;-77
2023/04/22 14:10:37;;;;;;;3.23;1.90;;;24.30;53.90;;;;;;5116056;28;20182;-76
2023/04/22 14:13:03;;;;;;;3.53;1.10;;;23.80;58.30;;;;;;5115513;28;20585;-76
2023/04/22 14:15:29;;;;;;;3.57;1.70;;;23.40;53.20;;;;;;5114042;28;20204;-76
2023/04/22 14:17:54;;;;;;;3.43;1.30;;;23.20;53.30;;;;;;5115545;28;20177;-76
2023/04/22 14:20:20;;;;;;;2.20;1.10;;;23.00;50.10;;;;;;5115097;28;20185;-76
2023/04/22 14:22:46;;;;;;;2.83;1.10;;;23.30;50.70;;;;;;5114034;28;20215;-76
2023/04/22 14:25:12;;;;;;;1.87;1.33;;;23.90;52.20;;;;;;5115545;28;20211;-76
2023/04/22 14:27:37;;;;;;;2.87;1.50;;;24.60;51.80;;;;;;5115290;28;20174;-76
2023/04/22 14:30:05;;;;;;;2.33;1.33;;;25.10;47.90;;;;;;5115164;28;20172;-75
2023/04/22 14:32:31;;;;;;;1.23;1.10;;;25.40;47.50;;;;;;5115231;28;20172;-77
2023/04/22 14:34:56;;;;;;;4.37;1.50;;;25.20;47.90;;;;;;5115010;28;20647;-76
2023/04/22 14:37:22;;;;;;;2.00;1.20;;;25.20;50.40;;;;;;5115083;28;20187;-76
2023/04/22 14:39:48;;;;;;;4.37;1.40;;;25.50;49.10;;;;;;5113504;28;20251;-76
2023/04/22 14:42:15;;;;;;;2.30;1.20;;;25.60;48.90;;;;;;5115525;28;20268;-76
2023/04/22 14:44:41;;;;;;;2.80;1.27;;;25.70;52.30;;;;;;5114868;28;20191;-76
2023/04/22 14:47:07;;;;;;;2.97;1.10;;;25.80;50.70;;;;;;5115397;28;20533;-76
2023/04/22 14:49:33;;;;;;;4.40;1.47;;;26.10;48.60;;;;;;5114719;28;20260;-77
2023/04/22 14:51:59;;;;;;;4.80;1.40;;;25.70;46.60;;;;;;5115094;28;20164;-77
2023/04/22 14:54:26;;;;;;;8.23;1.50;;;25.20;52.00;;;;;;5114730;28;20172;-77
2023/04/22 14:56:54;;;;;;;3.33;1.70;;;26.00;53.00;;;;;;5115118;28;20182;-77
2023/04/22 14:59:20;;;;;;;1.47;1.30;;;26.10;47.70;;;;;;5115205;28;20175;-77
2023/04/22 15:01:46;;;;;;;1.43;1.07;;;26.00;46.60;;;;;;5114477;28;20223;-78
2023/04/22 15:04:13;;;;;;;2.40;1.20;;;25.80;49.30;;;;;;5114882;28;20558;-77
2023/04/22 15:06:39;;;;;;;1.93;1.43;;;26.00;46.60;;;;;;5113450;28;20522;-77
2023/04/22 15:09:05;;;;;;;2.93;1.03;;;25.90;47.10;;;;;;5114738;27;20168;-76
2023/04/22 15:11:31;;;;;;;1.87;1.00;;;25.30;47.20;;;;;;5114047;28;20182;-77
2023/04/22 15:13:57;;;;;;;3.57;1.57;;;24.90;48.40;;;;;;5114571;28;20289;-77
2023/04/22 15:16:22;;;;;;;2.80;1.27;;;24.70;49.20;;;;;;5114697;28;20188;-77
2023/04/22 15:18:48;;;;;;;2.37;1.20;;;23.80;48.70;;;;;;5114814;28;20172;-76
2023/04/22 15:21:14;;;;;;;1.80;1.30;;;23.00;50.90;;;;;;5114255;28;20278;-77
2023/04/22 15:23:39;;;;;;;4.30;1.40;;;22.70;51.60;;;;;;5114816;28;20529;-77
2023/04/22 15:26:05;;;;;;;3.83;1.80;;;22.70;54.80;;;;;;5115131;28;20268;-77
2023/04/22 15:28:32;;;;;;;2.40;1.70;;;22.60;55.80;;;;;;5114935;28;20649;-77
2023/04/22 15:30:58;;;;;;;2.77;1.90;;;22.40;54.90;;;;;;5114278;28;20171;-77
2023/04/22 15:33:23;;;;;;;4.57;1.60;;;22.10;55.50;;;;;;5114524;28;20184;-77
2023/04/22 15:35:49;;;;;;;2.73;2.30;;;22.00;55.90;;;;;;5114531;28;20657;-78
2023/04/22 15:38:18;;;;;;;6.17;2.10;;;21.90;56.90;;;;;;5114309;28;20182;-77
2023/04/22 15:40:43;;;;;;;4.33;1.93;;;21.70;57.40;;;;;;5119697;28;20202;-79
2023/04/22 15:43:09;;;;;;;5.17;2.10;;;21.50;56.80;;;;;;5114618;28;20175;-75
2023/04/22 15:45:35;;;;;;;2.30;1.93;;;21.20;56.70;;;;;;5119572;28;20197;-79
2023/04/22 15:48:02;;;;;;;2.80;1.80;;;21.10;57.90;;;;;;5119269;28;20518;-78
2023/04/22 15:50:28;;;;;;;3.10;1.90;;;20.90;57.50;;;;;;5119718;28;20167;-79
2023/04/22 15:52:54;;;;;;;4.47;1.77;;;20.80;57.60;;;;;;5119429;28;20181;-78
2023/04/22 15:55:19;;;;;;;4.40;2.23;;;20.70;56.70;;;;;;5119341;28;20194;-78
2023/04/22 15:57:45;;;;;;;4.80;1.63;;;20.70;57.60;;;;;;5117308;28;20189;-78
2023/04/22 16:00:12;;;;;;;3.90;1.70;;;20.60;56.60;;;;;;5119310;28;20168;-78
2023/04/22 16:02:39;;;;;;;2.53;1.70;;;20.50;57.90;;;;;;5120215;28;20199;-78
2023/04/22 16:05:05;;;;;;;2.57;2.03;;;20.40;56.80;;;;;;5121551;28;20194;-78
2023/04/22 16:07:30;;;;;;;3.00;1.70;;;20.30;57.40;;;;;;5118428;28;20173;-79
2023/04/22 16:09:56;;;;;;;3.07;1.90;;;20.30;57.10;;;;;;5116656;28;20226;-80
2023/04/22 16:12:22;;;;;;;1.87;1.50;;;20.30;57.90;;;;;;5116141;28;20212;-78
2023/04/22 16:14:49;;;;;;;4.13;1.80;;;20.30;57.00;;;;;;5112582;28;20319;-77
2023/04/22 16:17:15;;;;;;;2.40;1.67;;;20.20;58.00;;;;;;5114092;28;20536;-77
2023/04/22 16:19:41;;;;;;;2.77;1.57;;;20.20;58.50;;;;;;5113564;28;20266;-78
2023/04/22 16:22:07;;;;;;;6.70;2.10;;;20.10;57.90;;;;;;5112755;28;20294;-76
2023/04/22 16:24:33;;;;;;;3.27;1.93;;;20.00;60.10;;;;;;5117083;28;20181;-76
2023/04/22 16:26:58;;;;;;;3.40;1.60;;;20.00;59.40;;;;;;5117894;28;20193;-77
2023/04/22 16:29:24;;;;;;;3.50;2.00;;;19.90;59.00;;;;;;5117807;28;20182;-77
2023/04/22 16:31:51;;;;;;;2.37;1.40;;;19.80;58.70;;;;;;5117670;28;20199;-76
2023/04/22 16:34:16;;;;;;;2.80;1.90;;;19.80;59.10;;;;;;5117494;28;20176;-76
2023/04/22 16:36:42;;;;;;;2.43;1.80;;;19.90;60.80;;;;;;5117882;28;20262;-76
2023/04/22 16:39:08;;;;;;;2.13;1.47;;;19.90;60.10;;;;;;5117921;28;20254;-76
2023/04/22 16:41:34;;;;;;;2.97;1.50;;;19.90;58.90;;;;;;5117286;28;20230;-76
2023/04/22 16:44:00;;;;;;;2.10;1.50;;;19.80;60.20;;;;;;5117562;28;20176;-75
2023/04/22 16:46:26;;;;;;;3.80;1.80;;;19.80;61.10;;;;;;5117237;28;20210;-76
2023/04/22 16:48:52;;;;;;;2.87;1.47;;;19.80;58.70;;;;;;5117565;28;20168;-76
2023/04/22 16:51:18;;;;;;;2.43;1.60;;;19.80;59.10;;;;;;5115881;28;20316;-76
2023/04/22 16:53:44;;;;;;;4.70;1.93;;;19.70;59.20;;;;;;5115966;28;20666;-76
2023/04/22 16:56:10;;;;;;;4.57;1.60;;;19.70;62.60;;;;;;5115713;28;20200;-76
2023/04/22 17:05:03;;;;;;;11.47;6.77;;;19.40;61.30;;;;;;5132441;27;20290;-76
2023/04/22 17:15:29;;;;;;;3.57;2.50;;;19.10;62.30;;;;;;5132712;27;20286;-76
2023/04/22 17:25:31;;;;;;;4.33;1.90;;;18.80;61.40;;;;;;5131999;27;20295;-75
